sensor_id;sensor_type;location;lat;lon;timestamp;P1;durP1;ratioP1;P2;durP2;ratioP2
1507;SDS011;745;48.586;10.032;2022-12-29T00:00:22;3.63;;;3.33;;
1507;SDS011;745;48.586;10.032;2022-12-29T00:04:53;5.33;;;3.90;;
1507;SDS011;745;48.586;10.032;2022-12-29T00:09:23;5.20;;;4.23;;
1507;SDS011;745;48.586;10.032;2022-12-29T00:13:54;8.63;;;4.97;;
1507;SDS011;745;48.586;10.032;2022-12-29T00:18:43;5.77;;;4.10;;
1507;SDS011;745;48.586;10.032;2022-12-29T00:23:13;5.53;;;3.83;;
1507;SDS011;745;48.586;10.032;2022-12-29T00:28:02;5.43;;;2.70;;
1507;SDS011;745;48.586;10.032;2022-12-29T00:32:51;3.50;;;2.90;;
1507;SDS011;745;48.586;10.032;2022-12-29T00:37:40;5.10;;;3.40;;
1507;SDS011;745;48.586;10.032;2022-12-29T00:42:31;4.13;;;3.17;;
1507;SDS011;745;48.586;10.032;2022-12-29T00:47:20;4.90;;;3.87;;
1507;SDS011;745;48.586;10.032;2022-12-29T00:51:51;2.90;;;2.60;;
1507;SDS011;745;48.586;10.032;2022-12-29T00:56:21;3.10;;;2.80;;
1507;SDS011;745;48.586;10.032;2022-12-29T01:00:52;3.50;;;3.20;;
1507;SDS011;745;48.586;10.032;2022-12-29T01:05:22;3.80;;;2.77;;
1507;SDS011;745;48.586;10.032;2022-12-29T01:09:52;2.63;;;2.43;;
1507;SDS011;745;48.586;10.032;2022-12-29T01:14:41;3.50;;;2.67;;
1507;SDS011;745;48.586;10.032;2022-12-29T01:19:11;3.70;;;2.90;;
1507;SDS011;745;48.586;10.032;2022-12-29T01:23:42;3.50;;;2.80;;
1507;SDS011;745;48.586;10.032;2022-12-29T01:28:12;2.57;;;2.33;;
1507;SDS011;745;48.586;10.032;2022-12-29T01:32:42;2.50;;;2.30;;
1507;SDS011;745;48.586;10.032;2022-12-29T01:37:13;2.80;;;2.23;;
1507;SDS011;745;48.586;10.032;2022-12-29T01:41:43;2.27;;;2.07;;
1507;SDS011;745;48.586;10.032;2022-12-29T01:46:24;2.30;;;2.10;;
1507;SDS011;745;48.586;10.032;2022-12-29T01:50:56;2.23;;;2.03;;
1507;SDS011;745;48.586;10.032;2022-12-29T01:55:28;3.17;;;2.87;;
1507;SDS011;745;48.586;10.032;2022-12-29T02:00:03;3.00;;;2.30;;
1507;SDS011;745;48.586;10.032;2022-12-29T02:04:35;2.93;;;2.60;;
1507;SDS011;745;48.586;10.032;2022-12-29T02:09:10;2.60;;;2.37;;
1507;SDS011;745;48.586;10.032;2022-12-29T02:13:41;2.60;;;2.20;;
1507;SDS011;745;48.586;10.032;2022-12-29T02:37:47;2.40;;;2.20;;
1507;SDS011;745;48.586;10.032;2022-12-29T02:42:49;2.70;;;2.50;;
1507;SDS011;745;48.586;10.032;2022-12-29T02:47:22;4.00;;;2.57;;
1507;SDS011;745;48.586;10.032;2022-12-29T02:52:02;1.90;;;1.80;;
1507;SDS011;745;48.586;10.032;2022-12-29T02:56:34;2.83;;;2.53;;
1507;SDS011;745;48.586;10.032;2022-12-29T03:01:10;2.33;;;2.13;;
1507;SDS011;745;48.586;10.032;2022-12-29T03:05:59;2.83;;;2.10;;
1507;SDS011;745;48.586;10.032;2022-12-29T03:15:23;2.60;;;2.40;;
1507;SDS011;745;48.586;10.032;2022-12-29T03:20:18;2.47;;;2.20;;
1507;SDS011;745;48.586;10.032;2022-12-29T03:24:54;3.13;;;2.30;;
1507;SDS011;745;48.586;10.032;2022-12-29T03:29:27;3.10;;;2.03;;
1507;SDS011;745;48.586;10.032;2022-12-29T03:34:01;3.03;;;2.60;;
1507;SDS011;745;48.586;10.032;2022-12-29T03:38:38;2.80;;;2.40;;
1507;SDS011;745;48.586;10.032;2022-12-29T03:43:12;2.20;;;2.00;;
1507;SDS011;745;48.586;10.032;2022-12-29T03:47:43;2.10;;;1.90;;
1507;SDS011;745;48.586;10.032;2022-12-29T03:52:13;2.80;;;2.47;;
1507;SDS011;745;48.586;10.032;2022-12-29T03:56:43;2.03;;;1.83;;
1507;SDS011;745;48.586;10.032;2022-12-29T04:01:13;2.20;;;2.00;;
1507;SDS011;745;48.586;10.032;2022-12-29T04:05:44;3.07;;;2.20;;
1507;SDS011;745;48.586;10.032;2022-12-29T04:10:14;2.27;;;2.00;;
1507;SDS011;745;48.586;10.032;2022-12-29T04:14:45;2.47;;;2.27;;
1507;SDS011;745;48.586;10.032;2022-12-29T04:19:15;5.93;;;2.20;;
1507;SDS011;745;48.586;10.032;2022-12-29T04:23:45;2.20;;;2.00;;
1507;SDS011;745;48.586;10.032;2022-12-29T04:28:16;4.80;;;2.43;;
1507;SDS011;745;48.586;10.032;2022-12-29T04:32:48;2.53;;;2.23;;
1507;SDS011;745;48.586;10.032;2022-12-29T04:37:18;2.23;;;2.03;;
1507;SDS011;745;48.586;10.032;2022-12-29T04:41:48;2.13;;;1.90;;
1507;SDS011;745;48.586;10.032;2022-12-29T04:46:19;2.20;;;2.00;;
1507;SDS011;745;48.586;10.032;2022-12-29T04:50:49;2.57;;;2.20;;
1507;SDS011;745;48.586;10.032;2022-12-29T04:55:20;3.00;;;2.20;;
1507;SDS011;745;48.586;10.032;2022-12-29T04:59:50;3.50;;;2.10;;
1507;SDS011;745;48.586;10.032;2022-12-29T05:04:21;2.40;;;2.20;;
1507;SDS011;745;48.586;10.032;2022-12-29T05:08:51;2.80;;;2.47;;
1507;SDS011;745;48.586;10.032;2022-12-29T05:13:21;2.37;;;2.17;;
1507;SDS011;745;48.586;10.032;2022-12-29T05:17:52;2.40;;;2.17;;
1507;SDS011;745;48.586;10.032;2022-12-29T05:22:22;2.30;;;2.10;;
1507;SDS011;745;48.586;10.032;2022-12-29T05:26:53;2.70;;;2.50;;
1507;SDS011;745;48.586;10.032;2022-12-29T05:31:23;2.67;;;2.47;;
1507;SDS011;745;48.586;10.032;2022-12-29T05:35:53;2.80;;;2.10;;
1507;SDS011;745;48.586;10.032;2022-12-29T05:40:24;2.40;;;2.20;;
1507;SDS011;745;48.586;10.032;2022-12-29T05:44:54;2.53;;;2.30;;
1507;SDS011;745;48.586;10.032;2022-12-29T05:49:24;2.77;;;2.40;;
1507;SDS011;745;48.586;10.032;2022-12-29T05:53:55;3.07;;;2.37;;
1507;SDS011;745;48.586;10.032;2022-12-29T05:58:25;3.10;;;2.80;;
1507;SDS011;745;48.586;10.032;2022-12-29T06:02:55;2.73;;;2.40;;
1507;SDS011;745;48.586;10.032;2022-12-29T06:07:26;2.90;;;2.60;;
1507;SDS011;745;48.586;10.032;2022-12-29T06:11:56;2.63;;;2.40;;
1507;SDS011;745;48.586;10.032;2022-12-29T06:16:26;2.63;;;2.40;;
1507;SDS011;745;48.586;10.032;2022-12-29T06:21:00;3.43;;;3.13;;
1507;SDS011;745;48.586;10.032;2022-12-29T06:25:31;6.47;;;3.23;;
1507;SDS011;745;48.586;10.032;2022-12-29T06:30:03;3.30;;;2.93;;
1507;SDS011;745;48.586;10.032;2022-12-29T06:34:34;3.37;;;2.77;;
1507;SDS011;745;48.586;10.032;2022-12-29T06:39:04;9.07;;;3.63;;
1507;SDS011;745;48.586;10.032;2022-12-29T06:43:35;3.00;;;2.50;;
1507;SDS011;745;48.586;10.032;2022-12-29T06:48:08;4.60;;;3.07;;
1507;SDS011;745;48.586;10.032;2022-12-29T06:52:38;5.63;;;3.20;;
1507;SDS011;745;48.586;10.032;2022-12-29T06:57:08;3.53;;;2.93;;
1507;SDS011;745;48.586;10.032;2022-12-29T07:01:39;4.20;;;3.30;;
1507;SDS011;745;48.586;10.032;2022-12-29T07:06:09;7.30;;;3.30;;
1507;SDS011;745;48.586;10.032;2022-12-29T07:10:39;5.00;;;3.00;;
1507;SDS011;745;48.586;10.032;2022-12-29T07:15:10;3.47;;;3.00;;
1507;SDS011;745;48.586;10.032;2022-12-29T07:19:40;3.07;;;2.80;;
1507;SDS011;745;48.586;10.032;2022-12-29T07:24:11;5.20;;;4.20;;
1507;SDS011;745;48.586;10.032;2022-12-29T07:28:41;6.57;;;4.00;;
1507;SDS011;745;48.586;10.032;2022-12-29T07:33:11;15.90;;;7.40;;
1507;SDS011;745;48.586;10.032;2022-12-29T07:37:42;7.93;;;5.33;;
1507;SDS011;745;48.586;10.032;2022-12-29T07:42:12;4.33;;;3.63;;
1507;SDS011;745;48.586;10.032;2022-12-29T07:46:42;4.03;;;3.67;;
1507;SDS011;745;48.586;10.032;2022-12-29T07:51:13;7.33;;;3.63;;
1507;SDS011;745;48.586;10.032;2022-12-29T07:55:43;5.53;;;4.23;;
1507;SDS011;745;48.586;10.032;2022-12-29T08:00:13;4.10;;;3.70;;
1507;SDS011;745;48.586;10.032;2022-12-29T08:04:44;6.10;;;3.70;;
1507;SDS011;745;48.586;10.032;2022-12-29T08:09:14;3.67;;;3.20;;
1507;SDS011;745;48.586;10.032;2022-12-29T08:13:45;3.87;;;3.50;;
1507;SDS011;745;48.586;10.032;2022-12-29T08:18:15;5.20;;;3.57;;
1507;SDS011;745;48.586;10.032;2022-12-29T08:22:45;5.90;;;3.63;;
1507;SDS011;745;48.586;10.032;2022-12-29T08:27:16;3.50;;;3.20;;
1507;SDS011;745;48.586;10.032;2022-12-29T08:31:46;4.03;;;3.60;;
1507;SDS011;745;48.586;10.032;2022-12-29T08:36:17;6.57;;;4.10;;
1507;SDS011;745;48.586;10.032;2022-12-29T08:40:47;4.27;;;3.87;;
1507;SDS011;745;48.586;10.032;2022-12-29T08:45:18;5.40;;;4.50;;
1507;SDS011;745;48.586;10.032;2022-12-29T08:49:48;5.13;;;4.13;;
1507;SDS011;745;48.586;10.032;2022-12-29T08:54:18;4.80;;;3.70;;
1507;SDS011;745;48.586;10.032;2022-12-29T08:58:49;3.97;;;3.50;;
1507;SDS011;745;48.586;10.032;2022-12-29T09:03:20;4.87;;;4.20;;
1507;SDS011;745;48.586;10.032;2022-12-29T09:07:51;4.17;;;3.77;;
1507;SDS011;745;48.586;10.032;2022-12-29T09:12:21;4.40;;;4.00;;
1507;SDS011;745;48.586;10.032;2022-12-29T09:16:52;4.80;;;4.07;;
1507;SDS011;745;48.586;10.032;2022-12-29T09:21:41;4.43;;;4.03;;
1507;SDS011;745;48.586;10.032;2022-12-29T09:26:11;9.63;;;4.47;;
1507;SDS011;745;48.586;10.032;2022-12-29T09:30:42;5.00;;;3.90;;
1507;SDS011;745;48.586;10.032;2022-12-29T09:35:13;4.73;;;3.77;;
1507;SDS011;745;48.586;10.032;2022-12-29T09:39:44;5.37;;;4.50;;
1507;SDS011;745;48.586;10.032;2022-12-29T09:44:20;5.40;;;3.97;;
1507;SDS011;745;48.586;10.032;2022-12-29T09:54:02;5.50;;;4.10;;
1507;SDS011;745;48.586;10.032;2022-12-29T09:58:41;4.57;;;3.97;;
1507;SDS011;745;48.586;10.032;2022-12-29T10:03:25;4.20;;;3.80;;
1507;SDS011;745;48.586;10.032;2022-12-29T10:08:07;7.40;;;4.20;;
1507;SDS011;745;48.586;10.032;2022-12-29T10:13:00;4.97;;;4.20;;
1507;SDS011;745;48.586;10.032;2022-12-29T10:17:42;6.80;;;4.77;;
1507;SDS011;745;48.586;10.032;2022-12-29T10:27:16;4.70;;;3.90;;
1507;SDS011;745;48.586;10.032;2022-12-29T10:31:50;7.13;;;4.00;;
1507;SDS011;745;48.586;10.032;2022-12-29T10:36:30;6.17;;;4.00;;
1507;SDS011;745;48.586;10.032;2022-12-29T10:46:04;3.90;;;3.50;;
1507;SDS011;745;48.586;10.032;2022-12-29T10:50:38;5.57;;;3.30;;
1507;SDS011;745;48.586;10.032;2022-12-29T10:55:13;4.03;;;3.30;;
1507;SDS011;745;48.586;10.032;2022-12-29T10:59:47;3.73;;;3.27;;
1507;SDS011;745;48.586;10.032;2022-12-29T11:09:16;5.87;;;3.47;;
1507;SDS011;745;48.586;10.032;2022-12-29T11:13:55;4.93;;;3.40;;
1507;SDS011;745;48.586;10.032;2022-12-29T11:18:33;6.60;;;3.70;;
1507;SDS011;745;48.586;10.032;2022-12-29T11:28:15;5.90;;;4.40;;
1507;SDS011;745;48.586;10.032;2022-12-29T11:32:52;3.70;;;3.40;;
1507;SDS011;745;48.586;10.032;2022-12-29T11:37:28;4.97;;;3.67;;
1507;SDS011;745;48.586;10.032;2022-12-29T11:42:01;5.30;;;3.80;;
1507;SDS011;745;48.586;10.032;2022-12-29T11:46:33;6.70;;;4.00;;
1507;SDS011;745;48.586;10.032;2022-12-29T11:51:05;4.60;;;3.80;;
1507;SDS011;745;48.586;10.032;2022-12-29T11:55:36;5.03;;;4.03;;
1507;SDS011;745;48.586;10.032;2022-12-29T12:00:25;4.50;;;3.80;;
1507;SDS011;745;48.586;10.032;2022-12-29T12:05:01;4.80;;;3.70;;
1507;SDS011;745;48.586;10.032;2022-12-29T12:09:54;5.97;;;3.80;;
1507;SDS011;745;48.586;10.032;2022-12-29T12:14:33;7.40;;;4.03;;
1507;SDS011;745;48.586;10.032;2022-12-29T12:28:28;5.13;;;4.30;;
1507;SDS011;745;48.586;10.032;2022-12-29T12:33:06;6.17;;;4.20;;
1507;SDS011;745;48.586;10.032;2022-12-29T12:57:00;5.30;;;3.73;;
1507;SDS011;745;48.586;10.032;2022-12-29T13:01:42;6.27;;;3.37;;
1507;SDS011;745;48.586;10.032;2022-12-29T13:11:47;4.40;;;4.00;;
1507;SDS011;745;48.586;10.032;2022-12-29T13:40:17;7.00;;;4.97;;
1507;SDS011;745;48.586;10.032;2022-12-29T13:44:54;8.40;;;6.40;;
1507;SDS011;745;48.586;10.032;2022-12-29T13:49:29;7.90;;;5.80;;
1507;SDS011;745;48.586;10.032;2022-12-29T14:08:20;3.87;;;3.57;;
1507;SDS011;745;48.586;10.032;2022-12-29T14:12:50;3.70;;;3.30;;
1507;SDS011;745;48.586;10.032;2022-12-29T14:17:21;3.50;;;3.20;;
1507;SDS011;745;48.586;10.032;2022-12-29T14:21:59;3.43;;;3.10;;
1507;SDS011;745;48.586;10.032;2022-12-29T14:31:32;5.30;;;4.33;;
1507;SDS011;745;48.586;10.032;2022-12-29T14:36:19;4.40;;;3.67;;
1507;SDS011;745;48.586;10.032;2022-12-29T14:40:50;4.17;;;3.57;;
1507;SDS011;745;48.586;10.032;2022-12-29T14:45:28;5.10;;;4.20;;
1507;SDS011;745;48.586;10.032;2022-12-29T14:50:06;7.80;;;4.77;;
1507;SDS011;745;48.586;10.032;2022-12-29T14:54:42;5.50;;;5.00;;
1507;SDS011;745;48.586;10.032;2022-12-29T14:59:14;5.93;;;5.33;;
1507;SDS011;745;48.586;10.032;2022-12-29T15:03:46;5.60;;;4.93;;
1507;SDS011;745;48.586;10.032;2022-12-29T15:08:25;4.53;;;4.13;;
1507;SDS011;745;48.586;10.032;2022-12-29T15:13:00;8.17;;;5.30;;
1507;SDS011;745;48.586;10.032;2022-12-29T15:17:34;5.90;;;4.97;;
1507;SDS011;745;48.586;10.032;2022-12-29T15:22:07;4.20;;;3.80;;
1507;SDS011;745;48.586;10.032;2022-12-29T15:26:39;4.30;;;3.90;;
1507;SDS011;745;48.586;10.032;2022-12-29T15:31:13;4.40;;;3.83;;
1507;SDS011;745;48.586;10.032;2022-12-29T15:35:44;4.07;;;3.53;;
1507;SDS011;745;48.586;10.032;2022-12-29T15:40:25;4.20;;;3.70;;
1507;SDS011;745;48.586;10.032;2022-12-29T15:44:57;5.07;;;3.60;;
1507;SDS011;745;48.586;10.032;2022-12-29T15:49:28;5.40;;;4.50;;
1507;SDS011;745;48.586;10.032;2022-12-29T15:53:58;7.83;;;6.73;;
1507;SDS011;745;48.586;10.032;2022-12-29T15:58:29;6.17;;;5.40;;
1507;SDS011;745;48.586;10.032;2022-12-29T16:03:01;4.67;;;4.20;;
1507;SDS011;745;48.586;10.032;2022-12-29T16:07:32;4.20;;;3.70;;
1507;SDS011;745;48.586;10.032;2022-12-29T16:12:06;7.80;;;4.37;;
1507;SDS011;745;48.586;10.032;2022-12-29T16:16:45;7.70;;;4.30;;
1507;SDS011;745;48.586;10.032;2022-12-29T16:21:25;5.30;;;4.50;;
1507;SDS011;745;48.586;10.032;2022-12-29T16:25:57;8.33;;;6.20;;
1507;SDS011;745;48.586;10.032;2022-12-29T16:30:29;7.70;;;6.33;;
1507;SDS011;745;48.586;10.032;2022-12-29T16:35:17;10.00;;;7.57;;
1507;SDS011;745;48.586;10.032;2022-12-29T16:39:49;11.60;;;7.97;;
1507;SDS011;745;48.586;10.032;2022-12-29T16:44:20;17.47;;;8.80;;
1507;SDS011;745;48.586;10.032;2022-12-29T16:48:53;10.67;;;6.33;;
1507;SDS011;745;48.586;10.032;2022-12-29T16:53:25;9.67;;;6.90;;
1507;SDS011;745;48.586;10.032;2022-12-29T16:57:58;10.33;;;5.50;;
1507;SDS011;745;48.586;10.032;2022-12-29T17:02:29;8.63;;;5.77;;
1507;SDS011;745;48.586;10.032;2022-12-29T17:07:01;6.33;;;5.00;;
1507;SDS011;745;48.586;10.032;2022-12-29T17:11:32;5.23;;;4.50;;
1507;SDS011;745;48.586;10.032;2022-12-29T17:16:22;4.03;;;3.50;;
1507;SDS011;745;48.586;10.032;2022-12-29T17:20:53;3.57;;;3.27;;
1507;SDS011;745;48.586;10.032;2022-12-29T17:25:27;3.77;;;3.30;;
1507;SDS011;745;48.586;10.032;2022-12-29T17:30:04;4.00;;;3.60;;
1507;SDS011;745;48.586;10.032;2022-12-29T17:34:45;2.93;;;2.70;;
1507;SDS011;745;48.586;10.032;2022-12-29T17:39:16;4.83;;;3.33;;
1507;SDS011;745;48.586;10.032;2022-12-29T17:43:46;4.87;;;3.40;;
1507;SDS011;745;48.586;10.032;2022-12-29T17:48:17;4.47;;;3.40;;
1507;SDS011;745;48.586;10.032;2022-12-29T17:52:52;3.03;;;2.73;;
1507;SDS011;745;48.586;10.032;2022-12-29T17:57:24;3.17;;;2.87;;
1507;SDS011;745;48.586;10.032;2022-12-29T18:01:54;4.13;;;3.50;;
1507;SDS011;745;48.586;10.032;2022-12-29T18:06:25;3.30;;;3.00;;
1507;SDS011;745;48.586;10.032;2022-12-29T18:10:55;4.00;;;3.30;;
1507;SDS011;745;48.586;10.032;2022-12-29T18:15:30;3.30;;;2.53;;
1507;SDS011;745;48.586;10.032;2022-12-29T18:20:03;2.93;;;2.73;;
1507;SDS011;745;48.586;10.032;2022-12-29T18:24:34;3.83;;;2.87;;
1507;SDS011;745;48.586;10.032;2022-12-29T18:29:04;3.93;;;3.30;;
1507;SDS011;745;48.586;10.032;2022-12-29T18:33:35;3.83;;;3.30;;
1507;SDS011;745;48.586;10.032;2022-12-29T18:38:05;4.03;;;3.63;;
1507;SDS011;745;48.586;10.032;2022-12-29T18:42:36;4.40;;;3.63;;
1507;SDS011;745;48.586;10.032;2022-12-29T18:47:06;3.70;;;3.30;;
1507;SDS011;745;48.586;10.032;2022-12-29T18:51:37;3.40;;;3.10;;
1507;SDS011;745;48.586;10.032;2022-12-29T18:56:07;3.33;;;3.03;;
1507;SDS011;745;48.586;10.032;2022-12-29T19:00:38;6.20;;;3.10;;
1507;SDS011;745;48.586;10.032;2022-12-29T19:05:19;3.83;;;3.00;;
1507;SDS011;745;48.586;10.032;2022-12-29T19:09:52;3.10;;;2.80;;
1507;SDS011;745;48.586;10.032;2022-12-29T19:14:22;3.80;;;3.50;;
1507;SDS011;745;48.586;10.032;2022-12-29T19:18:52;5.17;;;3.90;;
1507;SDS011;745;48.586;10.032;2022-12-29T19:23:24;4.27;;;3.67;;
1507;SDS011;745;48.586;10.032;2022-12-29T19:27:56;4.93;;;4.43;;
1507;SDS011;745;48.586;10.032;2022-12-29T19:32:26;5.03;;;4.60;;
1507;SDS011;745;48.586;10.032;2022-12-29T19:36:56;6.13;;;4.27;;
1507;SDS011;745;48.586;10.032;2022-12-29T19:41:27;5.10;;;4.60;;
1507;SDS011;745;48.586;10.032;2022-12-29T19:45:57;6.10;;;5.00;;
1507;SDS011;745;48.586;10.032;2022-12-29T19:50:27;5.93;;;5.17;;
1507;SDS011;745;48.586;10.032;2022-12-29T19:54:58;7.80;;;6.30;;
1507;SDS011;745;48.586;10.032;2022-12-29T19:59:28;7.10;;;6.10;;
1507;SDS011;745;48.586;10.032;2022-12-29T20:03:59;8.77;;;4.97;;
1507;SDS011;745;48.586;10.032;2022-12-29T20:08:32;4.47;;;4.00;;
1507;SDS011;745;48.586;10.032;2022-12-29T20:13:03;4.33;;;3.83;;
1507;SDS011;745;48.586;10.032;2022-12-29T20:17:35;3.77;;;3.47;;
1507;SDS011;745;48.586;10.032;2022-12-29T20:22:06;4.13;;;3.30;;
1507;SDS011;745;48.586;10.032;2022-12-29T20:26:37;4.13;;;3.10;;
1507;SDS011;745;48.586;10.032;2022-12-29T20:31:13;3.23;;;2.90;;
1507;SDS011;745;48.586;10.032;2022-12-29T20:35:46;3.83;;;3.33;;
1507;SDS011;745;48.586;10.032;2022-12-29T20:40:16;3.57;;;3.27;;
1507;SDS011;745;48.586;10.032;2022-12-29T20:44:47;3.10;;;2.80;;
1507;SDS011;745;48.586;10.032;2022-12-29T20:49:19;2.87;;;2.67;;
1507;SDS011;745;48.586;10.032;2022-12-29T20:53:50;2.83;;;2.63;;
1507;SDS011;745;48.586;10.032;2022-12-29T20:58:20;2.50;;;2.30;;
1507;SDS011;745;48.586;10.032;2022-12-29T21:02:51;2.80;;;2.37;;
1507;SDS011;745;48.586;10.032;2022-12-29T21:07:21;4.00;;;2.70;;
1507;SDS011;745;48.586;10.032;2022-12-29T21:11:52;3.63;;;2.50;;
1507;SDS011;745;48.586;10.032;2022-12-29T21:16:22;2.70;;;2.50;;
1507;SDS011;745;48.586;10.032;2022-12-29T21:21:00;3.23;;;2.50;;
1507;SDS011;745;48.586;10.032;2022-12-29T21:25:32;2.00;;;1.70;;
1507;SDS011;745;48.586;10.032;2022-12-29T21:30:08;3.30;;;2.40;;
1507;SDS011;745;48.586;10.032;2022-12-29T21:34:39;2.13;;;1.93;;
1507;SDS011;745;48.586;10.032;2022-12-29T21:39:09;2.03;;;1.93;;
1507;SDS011;745;48.586;10.032;2022-12-29T21:43:41;2.10;;;1.90;;
1507;SDS011;745;48.586;10.032;2022-12-29T21:48:13;5.70;;;1.50;;
1507;SDS011;745;48.586;10.032;2022-12-29T21:52:57;1.20;;;1.10;;
1507;SDS011;745;48.586;10.032;2022-12-29T21:57:28;2.30;;;1.00;;
1507;SDS011;745;48.586;10.032;2022-12-29T22:02:21;1.33;;;1.10;;
1507;SDS011;745;48.586;10.032;2022-12-29T22:07:14;1.73;;;1.20;;
1507;SDS011;745;48.586;10.032;2022-12-29T22:12:02;1.10;;;1.00;;
1507;SDS011;745;48.586;10.032;2022-12-29T22:16:52;1.23;;;1.13;;
1507;SDS011;745;48.586;10.032;2022-12-29T22:21:22;1.30;;;1.20;;
1507;SDS011;745;48.586;10.032;2022-12-29T22:25:53;0.90;;;0.90;;
1507;SDS011;745;48.586;10.032;2022-12-29T22:30:23;0.90;;;0.90;;
1507;SDS011;745;48.586;10.032;2022-12-29T22:34:55;0.80;;;0.80;;
1507;SDS011;745;48.586;10.032;2022-12-29T22:39:25;0.80;;;0.80;;
1507;SDS011;745;48.586;10.032;2022-12-29T22:43:55;0.97;;;0.97;;
1507;SDS011;745;48.586;10.032;2022-12-29T22:48:26;0.80;;;0.80;;
1507;SDS011;745;48.586;10.032;2022-12-29T22:52:56;1.63;;;0.90;;
1507;SDS011;745;48.586;10.032;2022-12-29T22:57:26;0.80;;;0.80;;
1507;SDS011;745;48.586;10.032;2022-12-29T23:01:59;0.80;;;0.80;;
1507;SDS011;745;48.586;10.032;2022-12-29T23:06:30;0.80;;;0.80;;
1507;SDS011;745;48.586;10.032;2022-12-29T23:11:01;0.90;;;0.90;;
1507;SDS011;745;48.586;10.032;2022-12-29T23:15:32;1.00;;;0.80;;
1507;SDS011;745;48.586;10.032;2022-12-29T23:20:04;1.40;;;1.30;;
1507;SDS011;745;48.586;10.032;2022-12-29T23:24:35;0.90;;;0.90;;
1507;SDS011;745;48.586;10.032;2022-12-29T23:29:07;1.43;;;1.03;;
1507;SDS011;745;48.586;10.032;2022-12-29T23:33:39;0.80;;;0.80;;
1507;SDS011;745;48.586;10.032;2022-12-29T23:38:10;0.80;;;0.80;;
1507;SDS011;745;48.586;10.032;2022-12-29T23:42:40;1.00;;;0.87;;
1507;SDS011;745;48.586;10.032;2022-12-29T23:47:10;0.80;;;0.80;;
1507;SDS011;745;48.586;10.032;2022-12-29T23:51:41;0.90;;;0.90;;
1507;SDS011;745;48.586;10.032;2022-12-29T23:56:15;0.70;;;0.70;;
